Time;durP1;ratioP1;P1;durP2;ratioP2;P2;SDS_P1;SDS_P2;PMS_P1;PMS_P2;Temp;Humidity;BMP_temperature;BMP_pressure;BME280_temperature;BME280_humidity;BME280_pressure;Samples;Min_cycle;Max_cycle;Signal;HPM_P1;HPM_P2
2023/06/18 00:01:31;;;;;;;10.13;7.70;;;;;;;21.35;100.00;101244.91;5046851;28;20025;-51
2023/06/18 00:03:56;;;;;;;10.98;7.57;;;;;;;21.35;100.00;101250.41;5035403;28;20463;-48
2023/06/18 00:06:21;;;;;;;9.15;7.70;;;;;;;21.31;100.00;101250.06;5041985;28;20037;-48
2023/06/18 00:08:47;;;;;;;10.77;6.97;;;;;;;21.33;100.00;101249.81;5051654;28;20160;-47
2023/06/18 00:11:14;;;;;;;8.55;6.93;;;;;;;21.33;100.00;101258.00;5038514;28;20029;-49
2023/06/18 00:13:39;;;;;;;12.00;7.30;;;;;;;21.33;100.00;101247.91;5043129;28;20467;-47
2023/06/18 00:16:05;;;;;;;12.20;7.40;;;;;;;21.30;100.00;101248.41;5051834;28;20283;-46
2023/06/18 00:18:32;;;;;;;9.48;7.35;;;;;;;21.29;100.00;101245.91;5050402;28;20470;-50
2023/06/18 00:20:59;;;;;;;11.85;6.50;;;;;;;21.26;100.00;101248.03;5049396;28;20116;-48
2023/06/18 00:23:24;;;;;;;10.45;7.55;;;;;;;21.26;100.00;101237.09;5040493;28;20025;-48
2023/06/18 00:25:50;;;;;;;14.35;7.43;;;;;;;21.19;100.00;101241.88;5031181;28;20037;-49
2023/06/18 00:28:15;;;;;;;12.25;8.35;;;;;;;21.16;100.00;101244.28;5029985;28;20033;-48
2023/06/18 00:30:42;;;;;;;8.88;7.32;;;;;;;21.11;100.00;101234.03;5029521;28;20026;-47
2023/06/18 00:33:07;;;;;;;12.13;7.70;;;;;;;21.12;100.00;101240.38;5031043;28;20096;-49
2023/06/18 00:35:32;;;;;;;11.00;7.65;;;;;;;21.10;100.00;101237.03;5030156;28;20133;-48
2023/06/18 00:38:02;;;;;;;9.57;7.20;;;;;;;21.01;100.00;101242.03;5029744;28;20053;-49
2023/06/18 00:40:28;;;;;;;15.23;8.52;;;;;;;20.99;100.00;101233.25;5036652;28;20079;-48
2023/06/18 00:42:55;;;;;;;11.95;7.90;;;;;;;20.96;100.00;101228.28;5049629;28;20105;-51
2023/06/18 00:45:20;;;;;;;12.37;7.93;;;;;;;20.97;100.00;101227.19;5051087;28;20063;-48
2023/06/18 00:47:49;;;;;;;10.65;7.43;;;;;;;20.97;100.00;101227.19;5032089;28;20391;-48
2023/06/18 00:50:18;;;;;;;9.98;7.97;;;;;;;20.95;100.00;101223.88;5030467;28;20049;-48
2023/06/18 00:52:47;;;;;;;13.90;8.02;;;;;;;20.89;100.00;101222.09;5030684;28;20491;-52
2023/06/18 00:55:16;;;;;;;13.88;8.32;;;;;;;20.89;100.00;101219.38;5030683;28;20049;-48
2023/06/18 00:57:44;;;;;;;14.38;7.32;;;;;;;20.79;100.00;101220.81;5043269;28;20443;-47
2023/06/18 01:00:12;;;;;;;9.25;7.68;;;;;;;20.75;100.00;101227.84;5028499;28;20037;-47
2023/06/18 01:02:45;;;;;;;;;;;;;;;20.74;100.00;101228.91;5031805;28;20034;-48
2023/06/18 01:05:12;;;;;;;10.75;7.85;;;;;;;20.74;100.00;101223.44;5030649;28;20004;-49
2023/06/18 01:07:39;;;;;;;9.10;7.40;;;;;;;20.73;100.00;101218.22;5046849;28;20029;-46
2023/06/18 01:10:05;;;;;;;18.52;8.50;;;;;;;20.74;100.00;101212.47;5048908;28;20032;-47
2023/06/18 01:12:30;;;;;;;11.88;7.65;;;;;;;20.67;100.00;101216.41;5049208;28;20052;-47
2023/06/18 01:14:56;;;;;;;10.98;8.50;;;;;;;20.59;100.00;101220.38;5050400;28;20072;-46
2023/06/18 01:17:22;;;;;;;15.05;8.45;;;;;;;20.52;100.00;101208.69;5035322;28;20037;-49
2023/06/18 01:19:56;;;;;;;11.38;8.10;;;;;;;20.46;100.00;101209.63;5028401;28;20074;-49
2023/06/18 01:22:42;;;;;;;14.35;7.95;;;;;;;20.49;100.00;101207.25;5030668;28;20375;-48
2023/06/18 01:25:08;;;;;;;16.38;7.70;;;;;;;20.54;100.00;101204.69;5021870;28;20081;-46
2023/06/18 01:27:40;;;;;;;10.25;8.07;;;;;;;20.49;100.00;101206.44;5044729;28;20104;-46
2023/06/18 01:30:09;;;;;;;10.18;8.20;;;;;;;20.47;100.00;101203.09;5048943;28;20082;-48
2023/06/18 01:32:36;;;;;;;9.75;8.10;;;;;;;20.48;100.00;101202.03;5050154;28;20040;-49
2023/06/18 01:35:02;;;;;;;12.38;8.48;;;;;;;20.42;100.00;101197.53;5044576;28;20369;-48
2023/06/18 01:37:31;;;;;;;11.80;7.93;;;;;;;20.45;100.00;101199.78;5042323;28;20041;-48
2023/06/18 01:40:22;;;;;;;14.63;8.23;;;;;;;20.47;100.00;101189.44;5050599;28;20501;-47
2023/06/18 01:42:55;;;;;;;9.55;7.63;;;;;;;20.44;100.00;101189.91;5050306;28;20048;-48
2023/06/18 01:45:35;;;;;;;9.00;6.82;;;;;;;20.41;100.00;101184.94;5026538;28;20455;-46
2023/06/18 01:48:03;;;;;;;9.98;6.97;;;;;;;20.34;100.00;101185.88;5031045;28;20075;-47
2023/06/18 01:50:28;;;;;;;;;;;;;;;20.33;100.00;101186.94;5032812;28;20025;-50
2023/06/18 01:52:55;;;;;;;12.02;7.78;;;;;;;20.28;100.00;101175.91;5044448;28;19913;-46
2023/06/18 01:55:21;;;;;;;10.73;7.53;;;;;;;20.26;100.00;101178.03;5033212;28;20148;-47
2023/06/18 01:57:47;;;;;;;11.63;7.13;;;;;;;20.22;100.00;101171.41;5043103;28;20538;-49
2023/06/18 02:00:13;;;;;;;9.40;7.32;;;;;;;20.19;100.00;101166.38;5048616;28;20039;-50
2023/06/18 02:02:38;;;;;;;7.80;6.93;;;;;;;20.15;100.00;101165.22;5047774;28;20041;-47
2023/06/18 02:05:04;;;;;;;8.75;7.45;;;;;;;20.19;100.00;101160.91;5028157;28;20532;-52
2023/06/18 02:07:29;;;;;;;11.27;7.60;;;;;;;20.12;100.00;101160.22;5029928;28;20140;-49
2023/06/18 02:09:55;;;;;;;9.35;7.30;;;;;;;20.15;100.00;101170.69;5033298;28;20029;-47
2023/06/18 02:12:22;;;;;;;10.00;7.25;;;;;;;20.09;100.00;101169.72;5049880;28;20039;-48
2023/06/18 02:14:47;;;;;;;14.33;7.70;;;;;;;20.03;100.00;101162.47;5049819;28;20036;-49
2023/06/18 02:17:13;;;;;;;16.42;8.63;;;;;;;19.98;100.00;101165.06;5029023;28;20045;-49
2023/06/18 02:19:38;;;;;;;15.60;8.30;;;;;;;19.91;100.00;101162.47;5030496;28;20381;-47
2023/06/18 02:22:04;;;;;;;9.88;7.70;;;;;;;19.93;100.00;101163.06;5029404;28;20447;-49
2023/06/18 02:24:31;;;;;;;10.77;7.88;;;;;;;19.90;100.00;101168.97;5030916;28;20033;-48
2023/06/18 02:26:56;;;;;;;9.80;7.70;;;;;;;19.94;100.00;101162.00;5029805;28;20042;-48
2023/06/18 02:29:21;;;;;;;10.15;7.75;;;;;;;19.93;100.00;101163.06;5028835;28;20033;-48
2023/06/18 02:31:47;;;;;;;9.55;7.65;;;;;;;19.91;100.00;101157.00;5032352;28;20061;-47
2023/06/18 02:34:12;;;;;;;10.45;8.05;;;;;;;19.95;100.00;101155.44;5033556;28;20041;-49
2023/06/18 02:36:38;;;;;;;10.75;7.47;;;;;;;19.88;100.00;101154.75;5032694;28;20068;-49
2023/06/18 02:39:04;;;;;;;12.13;8.15;;;;;;;19.80;100.00;101155.09;5033449;28;20387;-48
2023/06/18 02:41:29;;;;;;;14.18;8.30;;;;;;;19.79;100.00;101156.16;5033189;28;20026;-50
2023/06/18 02:43:54;;;;;;;9.82;7.90;;;;;;;19.73;100.00;101162.56;5033179;28;20506;-49
2023/06/18 02:46:20;;;;;;;9.00;7.57;;;;;;;19.70;100.00;101157.56;5044372;28;20397;-46
2023/06/18 02:48:45;;;;;;;9.63;7.25;;;;;;;19.70;100.00;101163.03;5053143;28;20021;-47
2023/06/18 02:51:11;;;;;;;9.52;7.13;;;;;;;19.71;100.00;101161.97;5052761;28;20029;-48
2023/06/18 02:53:36;;;;;;;10.30;7.47;;;;;;;19.72;100.00;101160.88;5041209;28;21295;-49
2023/06/18 02:56:02;;;;;;;15.48;7.32;;;;;;;19.71;100.00;101154.59;5049881;28;20052;-45
2023/06/18 02:58:30;;;;;;;10.40;7.97;;;;;;;19.67;100.00;101158.06;5052923;28;20028;-49
2023/06/18 03:00:59;;;;;;;11.88;7.25;;;;;;;19.66;100.00;101162.66;5035019;28;20033;-47
2023/06/18 03:03:26;;;;;;;9.50;7.25;;;;;;;19.64;100.00;101163.91;5052247;28;20033;-49
2023/06/18 03:05:52;;;;;;;11.98;7.57;;;;;;;19.63;100.00;101165.00;5050503;28;20041;-49
2023/06/18 03:08:18;;;;;;;9.55;7.47;;;;;;;19.61;100.00;101161.66;5052876;28;20030;-49
2023/06/18 03:10:44;;;;;;;11.18;8.18;;;;;;;19.59;100.00;101161.06;5052624;28;20096;-48
2023/06/18 03:13:09;;;;;;;12.25;8.10;;;;;;;19.54;100.00;101156.31;5052528;28;20187;-48
2023/06/18 03:15:35;;;;;;;9.65;7.82;;;;;;;19.51;100.00;101156.81;5044966;28;20490;-48
2023/06/18 03:18:00;;;;;;;10.38;7.90;;;;;;;19.52;100.00;101159.28;5014995;28;20099;-47
2023/06/18 03:20:27;;;;;;;13.38;7.93;;;;;;;19.49;100.00;101156.19;5015364;28;20034;-46
2023/06/18 03:22:52;;;;;;;10.23;7.78;;;;;;;19.47;100.00;101161.88;5032683;28;20030;-50
2023/06/18 03:25:19;;;;;;;16.52;7.88;;;;;;;19.45;100.00;101157.72;5045020;28;20048;-49
2023/06/18 03:27:45;;;;;;;10.05;7.45;;;;;;;19.44;100.00;101159.63;5052559;28;20024;-48
2023/06/18 03:30:11;;;;;;;14.00;7.57;;;;;;;19.43;100.00;101159.84;5052547;28;20100;-49
2023/06/18 03:32:36;;;;;;;11.38;7.85;;;;;;;19.44;100.00;101153.31;5051749;28;20168;-49
2023/06/18 03:35:04;;;;;;;9.65;7.53;;;;;;;19.45;100.00;101160.44;5021959;28;20052;-48
2023/06/18 03:37:30;;;;;;;11.07;8.27;;;;;;;19.44;100.00;101159.63;5051241;28;20033;-49
2023/06/18 03:39:56;;;;;;;13.57;8.02;;;;;;;19.44;100.00;101159.63;5052626;28;20037;-46
2023/06/18 03:42:21;;;;;;;12.63;8.57;;;;;;;19.53;100.00;101157.38;5051331;28;20083;-46
2023/06/18 03:44:46;;;;;;;10.80;8.25;;;;;;;19.48;100.00;101159.97;5051114;28;20087;-51
2023/06/18 03:47:12;;;;;;;13.38;8.65;;;;;;;19.53;100.00;101155.47;5033270;28;20029;-48
2023/06/18 03:49:38;;;;;;;9.93;7.45;;;;;;;19.56;100.00;101156.91;5030361;28;20033;-48
2023/06/18 03:52:04;;;;;;;15.90;8.73;;;;;;;19.62;100.00;101149.69;5036573;28;20029;-46
2023/06/18 03:54:31;;;;;;;11.73;7.82;;;;;;;19.55;100.00;101148.97;5029987;28;20107;-46
2023/06/18 03:56:57;;;;;;;12.25;8.60;;;;;;;19.56;100.00;101153.34;5029372;28;20029;-49
2023/06/18 03:59:23;;;;;;;13.52;8.63;;;;;;;19.49;100.00;101148.81;5029962;28;20021;-47
2023/06/18 04:01:49;;;;;;;13.55;9.00;;;;;;;19.44;100.00;101154.16;5029689;28;20396;-49
2023/06/18 04:04:15;;;;;;;12.77;8.90;;;;;;;19.44;100.00;101159.63;5027619;28;20379;-49
2023/06/18 04:06:40;;;;;;;18.58;9.10;;;;;;;19.41;100.00;101164.72;5027718;28;20167;-48
2023/06/18 04:09:05;;;;;;;14.18;8.52;;;;;;;19.41;100.00;101154.63;5028962;28;20044;-46
2023/06/18 04:11:31;;;;;;;15.85;9.00;;;;;;;19.44;100.00;101166.97;5029436;28;20026;-47
2023/06/18 04:13:56;;;;;;;14.75;9.52;;;;;;;19.46;100.00;101167.59;5031211;28;20501;-47
2023/06/18 04:16:21;;;;;;;15.05;9.18;;;;;;;19.49;100.00;101167.94;5047942;28;20028;-47
2023/06/18 04:18:47;;;;;;;14.30;8.70;;;;;;;19.50;100.00;101166.84;5046895;28;20451;-47
2023/06/18 04:21:12;;;;;;;13.38;8.63;;;;;;;19.50;100.00;101168.75;5041508;28;20041;-50
2023/06/18 04:23:40;;;;;;;15.43;8.45;;;;;;;19.56;100.00;101167.00;5016315;28;20167;-45
2023/06/18 04:26:05;;;;;;;13.82;8.95;;;;;;;19.57;100.00;101168.69;5027840;28;20099;-47
2023/06/18 04:28:31;;;;;;;13.55;8.73;;;;;;;19.58;100.00;101167.59;5031252;28;20037;-47
2023/06/18 04:30:56;;;;;;;11.70;8.68;;;;;;;19.55;100.00;101171.63;5031199;28;20029;-46
2023/06/18 04:33:21;;;;;;;16.70;8.70;;;;;;;19.56;100.00;101172.44;5027652;28;20029;-46
2023/06/18 04:35:47;;;;;;;16.80;9.18;;;;;;;19.60;100.00;101173.66;5029571;28;20100;-47
2023/06/18 04:38:12;;;;;;;19.10;10.05;;;;;;;19.64;100.00;101178.44;5032341;28;20031;-47
2023/06/18 04:40:37;;;;;;;17.77;10.02;;;;;;;19.63;100.00;101173.19;5030508;28;20090;-46
2023/06/18 04:43:03;;;;;;;15.38;9.35;;;;;;;19.63;100.00;101178.66;5028951;28;20314;-47
2023/06/18 04:45:29;;;;;;;12.35;8.93;;;;;;;19.71;100.00;101176.44;5027467;28;20026;-47
2023/06/18 04:47:54;;;;;;;14.73;10.05;;;;;;;19.66;100.00;101183.63;5010160;28;20022;-47
2023/06/18 04:50:21;;;;;;;20.35;9.18;;;;;;;19.66;100.00;101180.91;5038006;28;20025;-49
2023/06/18 04:52:46;;;;;;;18.77;10.13;;;;;;;19.72;100.00;101171.81;5048591;28;20446;-47
2023/06/18 04:55:12;;;;;;;17.52;10.30;;;;;;;19.81;100.00;101175.88;5047840;28;20052;-48
2023/06/18 04:57:37;;;;;;;15.02;9.75;;;;;;;19.97;100.00;101179.81;5047696;28;20072;-48
2023/06/18 05:00:04;;;;;;;14.60;10.18;;;;;;;19.99;100.00;101171.38;5046336;28;20455;-47
2023/06/18 05:02:30;;;;;;;18.02;10.65;;;;;;;19.90;100.00;101174.44;5048788;28;20029;-49
2023/06/18 05:04:56;;;;;;;15.52;10.65;;;;;;;20.04;100.00;101174.25;5045455;28;20128;-49
2023/06/18 05:07:22;;;;;;;16.00;10.65;;;;;;;20.15;100.00;101165.22;5030705;28;20031;-47
2023/06/18 05:09:47;;;;;;;15.07;10.13;;;;;;;20.32;100.00;101166.13;5031620;28;20044;-48
2023/06/18 05:12:13;;;;;;;16.60;11.27;;;;;;;20.48;100.00;101169.22;5028977;28;20168;-48
2023/06/18 05:14:38;;;;;;;16.60;11.38;;;;;;;20.35;100.00;101171.16;5027281;28;20052;-49
2023/06/18 05:17:04;;;;;;;16.15;10.20;;;;;;;20.43;100.00;101169.94;5034540;28;20052;-52
2023/06/18 05:19:29;;;;;;;16.17;11.02;;;;;;;20.55;100.00;101176.25;5032659;28;20069;-50
2023/06/18 05:21:54;;;;;;;18.52;11.25;;;;;;;20.54;100.00;101176.50;5028715;28;20022;-47
2023/06/18 05:24:20;;;;;;;16.05;10.38;;;;;;;20.65;100.00;101178.38;5029235;28;20021;-47
2023/06/18 05:26:45;;;;;;;16.55;10.50;;;;;;;20.73;100.00;101175.28;5011217;28;20037;-48
2023/06/18 05:29:11;;;;;;;14.30;11.70;;;;;;;20.65;100.00;101181.13;5028062;28;20436;-49
2023/06/18 05:31:37;;;;;;;20.85;11.27;;;;;;;20.69;100.00;101185.03;5028474;28;20471;-45
2023/06/18 05:34:02;;;;;;;15.80;11.38;;;;;;;20.67;100.00;101178.97;5026261;28;20034;-49
2023/06/18 05:36:28;;;;;;;17.48;10.73;;;;;;;20.63;100.00;101175.06;5037394;28;20048;-47
2023/06/18 05:38:59;;;;;;;15.50;11.32;;;;;;;20.57;100.00;101189.69;5034585;28;20029;-50
2023/06/18 05:41:25;;;;;;;16.00;10.93;;;;;;;20.50;100.00;101197.16;5036805;28;20063;-50
2023/06/18 05:43:50;;;;;;;20.42;11.50;;;;;;;20.48;100.00;101223.91;5037609;28;20039;-47
2023/06/18 05:46:16;;;;;;;17.52;11.38;;;;;;;20.17;100.00;101234.97;5035192;28;20112;-47
2023/06/18 05:48:41;;;;;;;17.90;11.65;;;;;;;20.23;100.00;101211.31;5037735;28;20030;-48
2023/06/18 05:51:06;;;;;;;15.55;10.82;;;;;;;20.35;100.00;101203.09;5037972;28;20041;-46
2023/06/18 05:53:32;;;;;;;20.92;11.07;;;;;;;20.33;100.00;101227.13;5033100;28;20018;-46
2023/06/18 05:55:57;;;;;;;16.52;10.98;;;;;;;20.13;100.00;101227.47;5019051;28;20049;-47
2023/06/18 05:58:22;;;;;;;20.73;11.02;;;;;;;20.14;100.00;101209.97;5034652;28;20044;-48
2023/06/18 06:00:48;;;;;;;18.15;11.32;;;;;;;20.09;100.00;101209.84;5034365;28;20186;-48
2023/06/18 06:03:14;;;;;;;21.98;11.48;;;;;;;20.13;100.00;101211.06;5038408;28;20492;-48
2023/06/18 06:05:39;;;;;;;22.50;11.48;;;;;;;20.21;100.00;101207.97;5036810;28;20029;-47
2023/06/18 06:08:06;;;;;;;19.88;11.20;;;;;;;20.30;100.00;101208.44;5040952;28;20104;-47
2023/06/18 06:10:31;;;;;;;16.90;10.15;;;;;;;20.41;100.00;101198.59;5039266;28;20476;-47
2023/06/18 06:12:57;;;;;;;15.05;10.52;;;;;;;20.62;100.00;101198.00;5040078;28;20032;-48
2023/06/18 06:15:22;;;;;;;20.42;10.57;;;;;;;20.79;100.00;101198.91;5041851;28;20108;-47
2023/06/18 06:17:48;;;;;;;14.80;10.35;;;;;;;20.85;100.00;101205.31;5040369;28;20045;-49
2023/06/18 06:20:13;;;;;;;16.85;11.10;;;;;;;20.91;100.00;101209.03;5017310;28;20475;-48
2023/06/18 06:22:38;;;;;;;16.90;10.93;;;;;;;21.02;100.00;101219.09;5029535;28;20504;-48
2023/06/18 06:25:04;;;;;;;16.17;10.90;;;;;;;21.04;100.00;101217.78;5030301;28;20123;-51
2023/06/18 06:27:30;;;;;;;16.70;10.27;;;;;;;21.13;100.00;101218.22;5033049;28;20033;-47
2023/06/18 06:29:55;;;;;;;18.00;10.18;;;;;;;21.25;100.00;101212.72;5038291;28;20119;-46
2023/06/18 06:32:21;;;;;;;16.40;9.98;;;;;;;21.29;100.00;101213.06;5035223;28;20041;-46
2023/06/18 06:34:47;;;;;;;16.55;10.20;;;;;;;21.30;100.00;101215.56;5039757;28;20108;-48
2023/06/18 06:37:12;;;;;;;18.08;10.32;;;;;;;21.48;100.00;101218.13;5032799;28;20250;-49
2023/06/18 06:39:38;;;;;;;17.58;9.95;;;;;;;21.50;100.00;101206.09;5031802;28;20392;-49
2023/06/18 06:42:04;;;;;;;15.13;10.30;;;;;;;21.53;100.00;101203.69;5037520;28;20495;-51
2023/06/18 06:44:29;;;;;;;15.18;9.80;;;;;;;21.73;100.00;101208.69;5040842;28;20391;-48
2023/06/18 06:46:54;;;;;;;14.95;9.63;;;;;;;21.81;100.00;101204.72;5039782;28;20160;-48
2023/06/18 06:49:20;;;;;;;12.70;9.63;;;;;;;21.86;100.00;101197.41;5050544;28;20345;-47
2023/06/18 06:51:46;;;;;;;11.18;7.82;;;;;;;22.04;100.00;101207.31;5041920;28;20033;-52
2023/06/18 06:54:12;;;;;;;15.67;8.80;;;;;;;22.16;100.00;101207.19;5036395;28;20100;-47
2023/06/18 06:56:37;;;;;;;16.13;8.90;;;;;;;22.22;100.00;101214.47;5041113;28;20445;-50
2023/06/18 06:59:02;;;;;;;13.95;7.35;;;;;;;22.32;100.00;101216.53;5037741;28;20076;-49
2023/06/18 07:01:28;;;;;;;10.75;8.32;;;;;;;22.40;100.00;101220.75;5037948;28;20453;-46
2023/06/18 07:03:53;;;;;;;18.73;8.10;;;;;;;22.26;100.00;101221.09;5041546;28;20029;-47
2023/06/18 07:06:19;;;;;;;13.25;7.72;;;;;;;22.30;100.00;101224.16;5041070;28;20028;-46
2023/06/18 07:08:44;;;;;;;11.00;8.35;;;;;;;22.53;99.61;101218.47;5037307;28;20531;-48
2023/06/18 07:11:10;;;;;;;13.43;7.72;;;;;;;22.73;97.92;101220.69;5035821;28;20036;-48
2023/06/18 07:13:35;;;;;;;16.02;8.52;;;;;;;22.87;95.15;101218.38;5030440;28;20033;-50
2023/06/18 07:16:00;;;;;;;13.05;7.65;;;;;;;23.08;95.84;101226.91;5031648;28;20036;-47
2023/06/18 07:18:26;;;;;;;10.68;7.65;;;;;;;23.26;93.64;101221.09;5027781;28;20033;-47
2023/06/18 07:20:52;;;;;;;17.10;7.70;;;;;;;23.56;92.28;101226.06;5033573;28;20036;-47
2023/06/18 07:23:17;;;;;;;12.25;8.23;;;;;;;23.43;88.73;101227.34;5039971;28;20368;-48
2023/06/18 07:25:42;;;;;;;15.32;8.43;;;;;;;23.36;88.71;101221.19;5040453;28;20041;-47
2023/06/18 07:28:08;;;;;;;11.40;7.88;;;;;;;23.45;89.40;101219.63;5038663;28;20024;-48
2023/06/18 07:30:33;;;;;;;11.38;8.15;;;;;;;23.21;89.44;101212.78;5038261;28;20048;-47
2023/06/18 07:32:59;;;;;;;9.95;8.05;;;;;;;23.11;90.13;101213.50;5043121;28;20037;-46
2023/06/18 07:35:24;;;;;;;16.55;7.97;;;;;;;23.03;92.14;101215.88;5032711;28;20032;-52
2023/06/18 07:37:50;;;;;;;13.82;8.35;;;;;;;23.04;93.18;101218.38;5045092;28;20487;-51
2023/06/18 07:40:16;;;;;;;11.25;7.43;;;;;;;23.06;93.37;101205.19;5032508;28;20056;-51
2023/06/18 07:42:43;;;;;;;12.40;7.47;;;;;;;23.08;94.69;101213.19;5032246;28;20555;-47
2023/06/18 07:45:09;;;;;;;17.23;8.30;;;;;;;22.88;93.84;101219.22;5014739;28;20013;-50
2023/06/18 07:47:34;;;;;;;9.52;7.63;;;;;;;22.69;95.69;101227.75;5019962;28;20484;-50
2023/06/18 07:50:01;;;;;;;11.60;7.65;;;;;;;22.63;97.97;101222.47;5045070;28;20661;-49
2023/06/18 07:52:26;;;;;;;10.65;7.75;;;;;;;22.62;100.00;101220.78;5051390;28;20177;-49
2023/06/18 07:54:51;;;;;;;14.63;8.55;;;;;;;22.49;100.00;101217.34;5051835;28;20131;-48
2023/06/18 07:57:17;;;;;;;12.18;8.32;;;;;;;22.35;100.00;101229.72;5050330;28;20024;-47
2023/06/18 07:59:42;;;;;;;13.23;8.40;;;;;;;22.30;100.00;101225.00;5051747;28;20037;-46
2023/06/18 08:02:09;;;;;;;14.88;8.43;;;;;;;22.32;100.00;101227.50;5050239;28;20020;-45
2023/06/18 08:04:34;;;;;;;13.67;9.03;;;;;;;22.36;100.00;101217.69;5052050;28;20609;-47
2023/06/18 08:07:00;;;;;;;13.00;8.57;;;;;;;22.48;100.00;101215.66;5052259;28;20112;-50
2023/06/18 08:09:25;;;;;;;10.35;8.93;;;;;;;22.54;100.00;101220.16;5050889;28;20546;-48
2023/06/18 08:11:51;;;;;;;10.15;7.95;;;;;;;22.58;100.00;101218.56;5033832;28;20426;-46
2023/06/18 08:14:17;;;;;;;11.75;8.13;;;;;;;22.38;100.00;101222.91;5050328;28;20032;-49
2023/06/18 08:16:42;;;;;;;12.00;8.45;;;;;;;22.44;100.00;101211.78;5051580;28;20095;-50
2023/06/18 08:19:08;;;;;;;9.38;8.32;;;;;;;22.45;100.00;101215.34;5051364;28;20417;-48
2023/06/18 08:21:33;;;;;;;9.95;8.13;;;;;;;22.40;100.00;101209.78;5033405;28;20338;-49
2023/06/18 08:23:58;;;;;;;13.05;7.80;;;;;;;22.64;100.00;101207.66;5050517;28;20053;-49
2023/06/18 08:26:24;;;;;;;11.43;7.75;;;;;;;22.74;100.00;101191.31;5051687;28;20124;-48
2023/06/18 08:28:50;;;;;;;11.13;8.23;;;;;;;22.78;100.00;101187.81;5052124;28;20021;-48
2023/06/18 08:31:15;;;;;;;10.80;8.32;;;;;;;22.96;100.00;101186.72;5051864;28;20044;-50
2023/06/18 08:33:41;;;;;;;22.60;9.13;;;;;;;22.96;100.00;101192.19;5051764;28;20442;-49
2023/06/18 08:36:06;;;;;;;9.85;7.38;;;;;;;23.25;100.00;101191.97;5033474;28;20041;-49
2023/06/18 08:38:31;;;;;;;9.27;8.32;;;;;;;23.28;100.00;101190.63;5051521;28;20059;-49
2023/06/18 08:41:02;;;;;;;8.95;7.63;;;;;;;23.32;100.00;101200.81;5051785;28;20099;-48
2023/06/18 08:43:36;;;;;;;9.98;7.88;;;;;;;23.28;100.00;101198.88;5051701;28;20029;-48
2023/06/18 08:46:04;;;;;;;11.27;8.10;;;;;;;23.47;100.00;101200.16;5051906;28;20031;-50
2023/06/18 08:48:29;;;;;;;12.85;7.90;;;;;;;23.59;100.00;101195.34;5051237;28;20364;-49
2023/06/18 08:51:04;;;;;;;10.20;7.47;;;;;;;23.75;100.00;101184.50;5051065;28;20059;-46
2023/06/18 08:53:59;;;;;;;10.60;8.38;;;;;;;23.86;99.21;101186.25;5051103;28;20130;-47
2023/06/18 08:56:26;;;;;;;11.30;8.30;;;;;;;24.00;99.20;101192.13;5048648;28;20055;-50
2023/06/18 08:58:57;;;;;;;10.30;8.38;;;;;;;24.17;98.02;101181.81;5050984;28;20057;-48
2023/06/18 09:01:23;;;;;;;8.73;7.85;;;;;;;24.20;98.48;101180.47;5051507;28;20456;-49
2023/06/18 09:03:48;;;;;;;11.30;8.05;;;;;;;24.27;95.70;101181.03;5049786;28;20025;-48
2023/06/18 09:06:14;;;;;;;12.00;8.07;;;;;;;24.37;95.81;101183.03;5049485;28;20042;-49
2023/06/18 09:08:40;;;;;;;10.30;7.43;;;;;;;24.35;95.50;101188.78;5050586;28;20071;-48
2023/06/18 09:11:06;;;;;;;11.88;7.90;;;;;;;23.97;95.67;101187.16;5049687;28;20029;-48
2023/06/18 09:13:32;;;;;;;9.93;8.10;;;;;;;23.93;97.80;101180.53;5051661;28;20109;-48
2023/06/18 09:15:57;;;;;;;10.27;8.10;;;;;;;24.01;100.00;101182.78;5050278;28;20028;-47
2023/06/18 09:18:24;;;;;;;10.70;8.23;;;;;;;24.12;100.00;101184.53;5049631;28;20028;-49
2023/06/18 09:20:51;;;;;;;8.27;7.05;;;;;;;24.38;99.19;101187.44;5050956;28;20117;-46
2023/06/18 09:23:17;;;;;;;;;;;;;;;24.44;98.10;101187.25;5051382;28;20131;-49
2023/06/18 09:25:48;;;;;;;12.80;8.90;;;;;;;24.31;96.60;101182.19;5049480;28;20354;-46
2023/06/18 09:28:14;;;;;;;10.98;8.30;;;;;;;24.21;96.57;101184.88;5050223;28;20056;-48
2023/06/18 09:30:51;;;;;;;14.98;7.00;;;;;;;24.43;95.70;101173.72;5032678;28;20063;-49
2023/06/18 09:33:27;;;;;;;8.88;6.85;;;;;;;24.41;95.14;101174.00;5050866;28;20475;-49
2023/06/18 09:36:00;;;;;;;8.27;7.10;;;;;;;24.36;96.18;101173.16;5050651;28;20029;-47
2023/06/18 09:38:36;;;;;;;9.63;6.88;;;;;;;24.20;95.13;101167.53;5049971;28;20446;-47
2023/06/18 09:41:02;;;;;;;11.82;7.47;;;;;;;24.07;96.59;101170.75;5051765;28;20029;-49
2023/06/18 09:43:35;;;;;;;12.02;7.32;;;;;;;24.09;96.49;101169.41;5052979;28;20025;-48
2023/06/18 09:46:03;;;;;;;10.43;6.65;;;;;;;24.19;96.63;101173.28;5054502;28;20032;-46
2023/06/18 09:48:28;;;;;;;11.02;8.57;;;;;;;24.23;95.86;101164.25;5054194;28;20535;-47
2023/06/18 09:50:55;;;;;;;8.93;7.95;;;;;;;24.19;97.14;101168.63;5053945;28;20035;-47
2023/06/18 09:53:20;;;;;;;13.75;8.30;;;;;;;24.01;97.86;101172.66;5054178;28;20460;-47
2023/06/18 09:55:46;;;;;;;10.50;8.98;;;;;;;23.90;97.79;101170.06;5054089;28;20111;-46
2023/06/18 09:58:11;;;;;;;9.73;8.50;;;;;;;23.92;99.02;101179.72;5052758;28;20060;-50
2023/06/18 10:00:37;;;;;;;17.05;8.50;;;;;;;24.04;99.62;101182.25;5054362;28;20148;-49
2023/06/18 10:03:06;;;;;;;17.45;9.15;;;;;;;23.91;99.99;101188.19;5053000;28;20029;-46
2023/06/18 10:05:32;;;;;;;13.48;8.90;;;;;;;23.78;99.03;101184.81;5054075;28;20047;-50
2023/06/18 10:08:03;;;;;;;14.02;9.88;;;;;;;23.49;98.10;101175.19;5035988;28;20074;-49
2023/06/18 10:10:29;;;;;;;12.13;8.85;;;;;;;23.51;100.00;101179.31;5053753;28;20154;-49
2023/06/18 10:12:55;;;;;;;14.07;9.45;;;;;;;23.60;100.00;101179.69;5053700;28;20491;-48
2023/06/18 10:15:23;;;;;;;11.63;8.97;;;;;;;23.68;100.00;101173.72;5023852;28;20104;-49
2023/06/18 10:17:55;;;;;;;14.90;9.45;;;;;;;23.59;99.43;101175.25;5036995;28;20052;-52
2023/06/18 10:20:21;;;;;;;13.18;8.57;;;;;;;23.58;100.00;101173.63;5032918;28;20033;-51
2023/06/18 10:22:54;;;;;;;11.35;7.90;;;;;;;23.61;100.00;101168.41;5016104;28;20040;-48
2023/06/18 10:25:20;;;;;;;12.95;9.13;;;;;;;23.62;99.28;101175.59;5033664;28;20422;-48
2023/06/18 10:27:46;;;;;;;11.45;7.75;;;;;;;23.48;98.88;101162.53;5033367;28;20032;-51
2023/06/18 10:30:12;;;;;;;14.68;7.97;;;;;;;23.38;98.08;101169.59;5031794;28;20448;-47
2023/06/18 10:32:39;;;;;;;13.48;7.68;;;;;;;23.44;98.88;101168.53;5032588;28;20025;-46
2023/06/18 10:35:08;;;;;;;10.80;7.93;;;;;;;23.32;98.85;101164.28;5032516;28;20033;-47
2023/06/18 10:37:35;;;;;;;12.32;8.35;;;;;;;23.35;99.41;101163.78;5033845;28;20283;-46
2023/06/18 10:40:04;;;;;;;10.80;7.85;;;;;;;23.42;99.95;101156.97;5048060;28;20037;-51
2023/06/18 10:42:32;;;;;;;9.18;7.22;;;;;;;23.32;100.00;101159.63;5053314;28;20075;-47
2023/06/18 10:45:14;;;;;;;8.73;6.65;;;;;;;23.38;100.00;101155.88;5037972;28;20488;-49
2023/06/18 10:47:41;;;;;;;6.78;5.80;;;;;;;23.28;99.40;101155.75;5036804;28;20317;-48
2023/06/18 10:50:07;;;;;;;;;;;;;;;23.39;98.45;101149.28;5036170;28;20076;-50
2023/06/18 10:52:49;;;;;;;7.18;5.38;;;;;;;23.49;96.88;101143.06;5031717;28;20403;-49
2023/06/18 10:55:20;;;;;;;7.18;5.68;;;;;;;23.63;98.14;101144.25;5032424;28;20041;-50
2023/06/18 10:57:50;;;;;;;6.40;5.30;;;;;;;23.69;98.58;101142.38;5033077;28;20033;-49
2023/06/18 11:00:16;;;;;;;6.75;5.45;;;;;;;23.72;98.82;101141.88;5036336;28;20103;-49
2023/06/18 11:02:43;;;;;;;6.32;5.43;;;;;;;23.85;97.86;101146.94;5050540;28;20036;-48
2023/06/18 11:05:15;;;;;;;6.97;6.13;;;;;;;23.78;98.23;101140.84;5043746;28;20036;-45
2023/06/18 11:07:40;;;;;;;6.10;5.60;;;;;;;23.79;98.70;101137.00;5034149;28;20116;-51
2023/06/18 11:10:07;;;;;;;6.78;5.90;;;;;;;23.90;98.98;101142.56;5016330;28;20132;-47